createdAt,value
2019-04-01T00:01:03.497Z,54.26
2019-04-01T00:03:35.022Z,51.55
2019-04-01T00:06:06.465Z,54.99
2019-04-01T00:08:39.266Z,51.93
2019-04-01T00:11:10.596Z,55.90
2019-04-01T00:13:43.270Z,52.44
2019-04-01T00:16:15.951Z,56.34
2019-04-01T00:19:02.066Z,52.49
2019-04-01T00:21:22.531Z,55.18
2019-04-01T00:23:55.224Z,52.17
2019-04-01T00:26:27.901Z,54.02
2019-04-01T00:28:59.369Z,52.03
2019-04-01T00:31:32.872Z,53.46
2019-04-01T00:34:04.405Z,54.30
2019-04-01T00:36:35.852Z,52.76
2019-04-01T00:39:08.535Z,56.14
2019-04-01T00:41:42.858Z,52.25
2019-04-01T00:44:14.215Z,55.84
2019-04-01T00:46:46.877Z,51.92
2019-04-01T00:49:19.577Z,55.09
2019-04-01T00:51:52.234Z,51.51
2019-04-01T00:54:26.764Z,55.01
2019-04-01T00:56:58.210Z,52.06
2019-04-01T00:59:31.833Z,54.03
2019-04-01T01:02:03.268Z,52.45
2019-04-01T01:04:34.792Z,52.97
2019-04-01T01:07:07.571Z,55.02
2019-04-01T01:09:39.813Z,52.06
2019-04-01T01:12:11.235Z,55.95
2019-04-01T01:14:42.840Z,52.13
2019-04-01T01:17:16.278Z,55.08
2019-04-01T01:19:47.754Z,52.43
2019-04-01T01:22:19.189Z,53.00
2019-04-01T01:24:50.647Z,55.24
2019-04-01T01:27:22.081Z,52.38
2019-04-01T01:29:54.777Z,56.28
2019-04-01T01:32:26.208Z,52.24
2019-04-01T01:34:57.693Z,55.49
2019-04-01T01:37:29.286Z,51.87
2019-04-01T01:40:01.794Z,54.34
2019-04-01T01:42:34.783Z,52.24
2019-04-01T01:45:07.942Z,53.46
2019-04-01T01:47:40.455Z,54.31
2019-04-01T01:50:12.829Z,52.47
2019-04-01T01:52:44.357Z,56.15
2019-04-01T01:55:18.213Z,52.17
2019-04-01T01:57:49.627Z,54.78
2019-04-01T02:00:23.584Z,53.09
2019-04-01T02:02:54.995Z,52.92
2019-04-01T02:05:26.442Z,55.65
2019-04-01T02:07:59.135Z,52.22
2019-04-01T02:10:30.568Z,55.73
2019-04-01T02:13:03.273Z,52.06
2019-04-01T02:15:35.624Z,54.75
2019-04-01T02:18:08.328Z,52.29
2019-04-01T02:20:41.917Z,53.25
2019-04-01T02:23:14.597Z,55.38
2019-04-01T02:25:47.273Z,52.27
2019-04-01T02:28:19.959Z,55.30
2019-04-01T02:30:51.399Z,52.04
2019-04-01T02:33:24.405Z,53.73
2019-04-01T02:35:57.989Z,54.60
2019-04-01T02:38:29.460Z,52.61
2019-04-01T02:41:00.921Z,55.59
2019-04-01T02:43:33.572Z,52.17
2019-04-01T02:46:05.100Z,54.22
2019-04-01T02:48:37.715Z,52.51
2019-04-01T02:51:10.689Z,53.12
2019-04-01T02:53:43.373Z,55.47
2019-04-01T02:56:16.049Z,52.40
2019-04-01T02:58:48.750Z,55.54
2019-04-01T03:01:21.111Z,52.16
2019-04-01T03:03:53.790Z,55.08
2019-04-01T03:06:25.241Z,52.09
2019-04-01T03:08:58.073Z,53.59
2019-04-01T03:11:31.340Z,54.32
2019-04-01T03:14:04.059Z,52.49
2019-04-01T03:16:36.582Z,55.70
2019-04-01T03:19:08.194Z,51.86
2019-04-01T03:21:40.703Z,54.42
2019-04-01T03:24:13.381Z,51.78
2019-04-01T03:26:46.985Z,53.03
2019-04-01T03:29:18.432Z,54.46
2019-04-01T03:31:49.891Z,51.59
2019-04-01T03:34:21.832Z,54.88
2019-04-01T03:36:57.084Z,51.15
2019-04-01T03:39:29.773Z,52.83
2019-04-01T03:42:03.996Z,51.93
2019-04-01T03:44:36.665Z,51.64
2019-04-01T03:47:08.423Z,54.68
2019-04-01T03:49:41.118Z,50.31
2019-04-01T03:52:12.565Z,53.72
2019-04-01T03:54:45.245Z,50.50
2019-04-01T03:57:17.919Z,52.14
2019-04-01T03:59:49.383Z,52.02
2019-04-01T04:02:20.823Z,50.73
2019-04-01T04:04:53.517Z,53.62
2019-04-01T04:07:26.494Z,50.32
2019-04-01T04:09:59.168Z,52.38
2019-04-01T04:12:31.854Z,52.43
2019-04-01T04:15:04.302Z,50.45
2019-04-01T04:17:35.666Z,53.58
2019-04-01T04:20:07.208Z,49.94
2019-04-01T04:22:39.808Z,51.81
2019-04-01T04:25:12.482Z,52.56
2019-04-01T04:27:46.083Z,50.55
2019-04-01T04:30:19.833Z,54.31
2019-04-01T04:32:51.164Z,50.63
2019-04-01T04:35:23.511Z,53.97
2019-04-01T04:37:54.961Z,50.79
2019-04-01T04:40:27.641Z,52.34
2019-04-01T04:43:00.320Z,53.90
2019-04-01T04:45:32.725Z,51.39
2019-04-01T04:48:06.600Z,55.17
2019-04-01T04:50:38.060Z,51.64
2019-04-01T04:53:11.978Z,54.56
2019-04-01T04:55:43.414Z,51.67
2019-04-01T04:58:17.561Z,53.51
2019-04-01T05:00:49.094Z,51.96
2019-04-01T05:03:21.450Z,52.46
2019-04-01T05:05:53.357Z,54.85
2019-04-01T05:08:24.679Z,51.95
2019-04-01T05:10:58.887Z,54.97
2019-04-01T05:13:31.580Z,52.16
2019-04-01T05:16:03.332Z,55.92
2019-04-01T05:18:35.109Z,52.71
2019-04-01T05:21:06.552Z,56.54
2019-04-01T05:23:37.995Z,52.90
2019-04-01T05:26:09.921Z,57.00
2019-04-01T05:28:42.454Z,53.96
2019-04-01T05:31:14.715Z,56.92
2019-04-01T05:33:55.334Z,53.89
2019-04-01T05:36:20.456Z,53.01
2019-04-01T05:38:54.983Z,54.15
2019-04-01T05:41:26.471Z,51.52
2019-04-01T05:44:02.127Z,53.41
2019-04-01T05:46:33.041Z,48.79
2019-04-01T05:49:04.478Z,47.67
2019-04-01T05:51:35.929Z,45.10
2019-04-01T05:54:08.365Z,42.77
2019-04-01T05:56:41.052Z,40.60
2019-04-01T05:59:12.440Z,41.14
2019-04-01T06:01:46.757Z,37.89
2019-04-01T06:04:18.117Z,37.65
2019-04-01T06:06:49.551Z,34.23
2019-04-01T06:09:21.095Z,33.46
2019-04-01T06:11:53.697Z,32.98
2019-04-01T06:14:25.034Z,32.22
2019-04-01T06:16:56.361Z,30.01
2019-04-01T06:19:29.024Z,28.77
2019-04-01T06:22:00.451Z,28.40
2019-04-01T06:24:31.893Z,27.88
2019-04-01T06:27:03.313Z,26.74
2019-04-01T06:29:34.862Z,25.87
2019-04-01T06:32:06.222Z,25.24
2019-04-01T06:34:51.927Z,24.93
2019-04-01T06:37:11.913Z,24.61
2019-04-01T06:39:43.355Z,23.75
2019-04-01T06:42:14.793Z,24.56
2019-04-01T06:44:46.275Z,23.27
2019-04-01T06:47:17.680Z,23.69
2019-04-01T06:49:51.329Z,21.98
2019-04-01T06:52:23.960Z,24.38
2019-04-01T06:54:56.673Z,21.46
2019-04-01T06:57:29.023Z,21.66
2019-04-01T07:00:02.652Z,20.94
2019-04-01T07:02:34.080Z,21.11
2019-04-01T07:05:06.873Z,20.99
2019-04-01T07:07:38.217Z,20.56
2019-04-01T07:10:09.688Z,20.57
2019-04-01T07:12:41.124Z,20.35
2019-04-01T07:15:12.606Z,20.34
2019-04-01T07:17:44.033Z,19.81
2019-04-01T07:20:15.482Z,19.51
2019-04-01T07:22:48.554Z,19.00
2019-04-01T07:25:21.230Z,19.27
2019-04-01T07:27:52.575Z,19.00
2019-04-01T07:30:24.072Z,18.57
2019-04-01T07:32:55.509Z,18.34
2019-04-01T07:35:26.953Z,18.66
2019-04-01T07:37:58.398Z,18.50
2019-04-01T07:40:29.897Z,18.63
2019-04-01T07:43:01.623Z,18.35
2019-04-01T07:45:39.011Z,18.35
2019-04-01T07:48:12.813Z,18.18
2019-04-01T07:50:44.994Z,18.34
2019-04-01T07:53:17.542Z,18.18
2019-04-01T07:55:50.242Z,18.28
2019-04-01T07:58:21.678Z,18.10
2019-04-01T08:00:53.148Z,18.31
2019-04-01T08:03:29.478Z,18.20
2019-04-01T08:06:03.434Z,18.50
2019-04-01T08:08:34.865Z,18.54
2019-04-01T08:11:06.197Z,18.67
2019-04-01T08:13:39.054Z,18.39
2019-04-01T08:16:10.440Z,18.76
2019-04-01T08:18:43.130Z,19.10
2019-04-01T08:21:15.490Z,18.81
2019-04-01T08:23:46.949Z,17.77
2019-04-01T08:26:18.491Z,18.74
2019-04-01T08:28:51.139Z,18.21
2019-04-01T08:31:22.552Z,19.24
2019-04-01T08:33:54.062Z,17.85
2019-04-01T08:36:26.720Z,15.41
2019-04-01T08:38:59.374Z,18.37
2019-04-01T08:41:31.220Z,18.32
2019-04-01T08:44:03.376Z,20.33
2019-04-01T08:46:35.573Z,19.79
2019-04-01T08:49:08.037Z,21.35
2019-04-01T08:51:41.269Z,23.39
2019-04-01T08:54:13.628Z,23.37
2019-04-01T08:56:46.855Z,21.62
2019-04-01T08:59:19.868Z,22.48
2019-04-01T09:01:55.074Z,22.84
2019-04-01T09:04:28.208Z,23.14
2019-04-01T09:07:01.377Z,24.08
2019-04-01T09:09:32.991Z,24.32
2019-04-01T09:12:04.880Z,24.44
2019-04-01T09:14:37.610Z,23.95
2019-04-01T09:17:09.053Z,24.02
2019-04-01T09:19:45.094Z,25.58
2019-04-01T09:22:16.583Z,24.79
2019-04-01T09:24:48.028Z,24.86
2019-04-01T09:27:19.786Z,25.43
2019-04-01T09:29:51.397Z,25.69
2019-04-01T09:32:24.076Z,26.47
2019-04-01T09:34:57.679Z,25.88
2019-04-01T09:37:33.693Z,25.96
2019-04-01T09:40:07.972Z,26.93
2019-04-01T09:42:41.645Z,27.08
2019-04-01T09:45:15.164Z,26.64
2019-04-01T09:47:48.414Z,26.96
2019-04-01T09:50:20.035Z,26.84
2019-04-01T09:52:54.356Z,27.82
2019-04-01T09:55:25.891Z,27.65
2019-04-01T09:57:58.228Z,27.48
2019-04-01T10:00:33.077Z,27.88
2019-04-01T10:03:05.759Z,27.86
2019-04-01T10:05:38.754Z,28.02
2019-04-01T10:08:11.441Z,28.30
2019-04-01T10:10:46.540Z,27.67
2019-04-01T10:13:19.259Z,27.90
2019-04-01T10:15:50.707Z,28.42
2019-04-01T10:18:22.185Z,28.33
2019-04-01T10:20:56.059Z,27.06
2019-04-01T10:23:27.629Z,27.95
2019-04-01T10:25:59.015Z,28.32
2019-04-01T10:28:32.118Z,29.00
2019-04-01T10:31:05.403Z,28.67
2019-04-01T10:33:38.050Z,28.19
2019-04-01T10:36:10.908Z,26.07
2019-04-01T10:38:42.558Z,26.16
2019-04-01T10:41:14.140Z,27.34
2019-04-01T10:43:46.672Z,27.28
2019-04-01T10:46:20.015Z,27.95
2019-04-01T10:48:51.568Z,27.95
2019-04-01T10:51:25.156Z,27.48
2019-04-01T10:54:00.650Z,27.80
2019-04-01T10:56:35.676Z,28.08
2019-04-01T10:59:06.281Z,27.99
2019-04-01T11:01:38.962Z,27.59
2019-04-01T11:04:17.288Z,28.24
2019-04-01T11:06:48.646Z,28.37
2019-04-01T11:09:37.409Z,28.77
2019-04-01T11:11:56.232Z,28.31
2019-04-01T11:14:27.569Z,29.29
2019-04-01T11:17:17.514Z,30.06
2019-04-01T11:19:48.961Z,29.61
2019-04-01T11:22:20.372Z,29.89
2019-04-01T11:24:51.807Z,30.12
2019-04-01T11:27:23.717Z,30.33
2019-04-01T11:29:56.246Z,30.96
2019-04-01T11:32:28.977Z,30.48
2019-04-01T11:35:01.658Z,29.66
2019-04-01T11:37:34.316Z,30.13
2019-04-01T11:40:11.359Z,29.30
2019-04-01T11:42:42.158Z,29.92
2019-04-01T11:45:16.524Z,29.81
2019-04-01T11:47:48.127Z,28.80
2019-04-01T11:50:19.562Z,29.22
2019-04-01T11:52:51.955Z,30.30
2019-04-01T11:55:23.797Z,28.98
2019-04-01T11:57:56.343Z,29.86
2019-04-01T12:00:28.718Z,29.95
2019-04-01T12:03:02.686Z,29.50
2019-04-01T12:05:38.491Z,28.96
2019-04-01T12:08:09.850Z,29.18
2019-04-01T12:10:41.315Z,29.30
2019-04-01T12:13:19.762Z,29.79
2019-04-01T12:15:51.297Z,30.19
2019-04-01T12:18:26.430Z,29.79
2019-04-01T12:21:01.219Z,29.35
2019-04-01T12:23:32.690Z,29.68
2019-04-01T12:26:15.151Z,29.55
2019-04-01T12:28:38.643Z,29.73
2019-04-01T12:31:15.755Z,30.63
2019-04-01T12:33:54.163Z,31.16
2019-04-01T12:36:25.602Z,30.10
2019-04-01T12:39:01.633Z,30.41
2019-04-01T12:41:36.941Z,30.21
2019-04-01T12:44:11.255Z,30.49
2019-04-01T12:46:43.381Z,30.64
2019-04-01T12:49:14.906Z,31.22
2019-04-01T12:51:59.406Z,30.63
2019-04-01T12:54:32.106Z,30.71
2019-04-01T12:57:11.439Z,31.24
2019-04-01T12:59:45.809Z,30.92
2019-04-01T13:02:22.077Z,31.84
2019-04-01T13:04:56.489Z,30.60
2019-04-01T13:07:33.557Z,30.65
2019-04-01T13:10:07.756Z,29.99
2019-04-01T13:12:39.699Z,30.27
2019-04-01T13:15:12.598Z,30.42
2019-04-01T13:17:45.647Z,30.33
2019-04-01T13:20:17.100Z,29.83
2019-04-01T13:22:49.250Z,30.27
2019-04-01T13:25:27.261Z,29.67
2019-04-01T13:28:02.866Z,30.48
2019-04-01T13:30:34.288Z,30.46
2019-04-01T13:33:05.730Z,29.50
2019-04-01T13:35:40.016Z,29.82
2019-04-01T13:38:12.919Z,30.08
2019-04-01T13:40:47.836Z,30.16
2019-04-01T13:43:20.444Z,29.25
2019-04-01T13:45:54.663Z,29.70
2019-04-01T13:48:27.338Z,29.51
2019-04-01T13:51:01.605Z,29.01
2019-04-01T13:53:32.995Z,29.25
2019-04-01T13:56:06.005Z,29.36
2019-04-01T13:58:39.309Z,29.10
2019-04-01T14:01:14.052Z,29.46
2019-04-01T14:03:45.583Z,30.00
2019-04-01T14:06:17.323Z,30.78
2019-04-01T14:08:51.159Z,30.26
2019-04-01T14:11:25.760Z,30.16
2019-04-01T14:14:01.950Z,29.80
2019-04-01T14:16:36.354Z,30.00
2019-04-01T14:19:07.802Z,30.13
2019-04-01T14:21:39.239Z,29.54
2019-04-01T14:24:14.184Z,29.94
2019-04-01T14:26:50.098Z,30.21
2019-04-01T14:29:21.594Z,30.08
2019-04-01T14:31:53.025Z,30.48
2019-04-01T14:34:30.174Z,30.05
2019-04-01T14:37:12.358Z,30.80
2019-04-01T14:39:49.092Z,30.34
2019-04-01T14:42:22.481Z,30.30
2019-04-01T14:44:58.922Z,30.80
2019-04-01T14:47:49.960Z,30.94
2019-04-01T14:50:10.996Z,31.20
2019-04-01T14:52:43.395Z,31.11
2019-04-01T14:55:15.728Z,31.30
2019-04-01T14:57:54.804Z,30.68
2019-04-01T15:00:20.805Z,31.00
2019-04-01T15:02:52.231Z,31.44
2019-04-01T15:05:23.685Z,31.60
2019-04-01T15:07:56.368Z,31.98
2019-04-01T15:10:28.728Z,32.27
2019-04-01T15:13:05.744Z,31.40
2019-04-01T15:15:43.893Z,31.38
2019-04-01T15:18:22.063Z,31.44
2019-04-01T15:21:06.263Z,31.31
2019-04-01T15:23:54.153Z,31.78
2019-04-01T15:26:43.695Z,31.74
2019-04-01T15:29:15.256Z,32.10
2019-04-01T15:31:46.699Z,32.36
2019-04-01T15:34:18.621Z,32.47
2019-04-01T15:36:50.830Z,32.20
2019-04-01T15:39:23.503Z,32.27
2019-04-01T15:41:56.221Z,32.45
2019-04-01T15:44:29.321Z,32.69
2019-04-01T15:47:04.494Z,32.48
2019-04-01T15:49:36.391Z,32.52
2019-04-01T15:52:07.837Z,32.85
2019-04-01T15:54:39.303Z,33.12
2019-04-01T15:57:15.073Z,33.61
2019-04-01T15:59:45.860Z,33.49
2019-04-01T16:02:17.619Z,33.21
2019-04-01T16:04:50.722Z,33.53
2019-04-01T16:07:22.577Z,33.73
2019-04-01T16:09:59.649Z,33.74
2019-04-01T16:12:32.640Z,34.19
2019-04-01T16:15:09.056Z,33.92
2019-04-01T16:17:42.287Z,33.84
2019-04-01T16:20:14.223Z,33.88
2019-04-01T16:22:46.743Z,34.34
2019-04-01T16:25:18.219Z,34.07
2019-04-01T16:27:50.880Z,34.31
2019-04-01T16:30:23.562Z,34.68
2019-04-01T16:32:56.241Z,35.02
2019-04-01T16:35:27.789Z,35.61
2019-04-01T16:38:00.692Z,35.80
2019-04-01T16:40:33.358Z,35.59
2019-04-01T16:43:06.065Z,35.50
2019-04-01T16:45:39.074Z,35.50
2019-04-01T16:48:10.869Z,35.63
2019-04-01T16:50:43.935Z,35.52
2019-04-01T16:53:17.511Z,35.28
2019-04-01T16:55:48.831Z,35.66
2019-04-01T16:58:21.673Z,36.19
2019-04-01T17:00:55.826Z,36.10
2019-04-01T17:03:27.781Z,36.52
2019-04-01T17:06:00.471Z,36.55
2019-04-01T17:08:34.383Z,36.64
2019-04-01T17:11:06.980Z,36.59
2019-04-01T17:13:38.527Z,36.89
2019-04-01T17:16:09.954Z,37.24
2019-04-01T17:18:42.656Z,37.08
2019-04-01T17:21:14.095Z,37.07
2019-04-01T17:23:47.528Z,36.98
2019-04-01T17:26:19.233Z,36.93
2019-04-01T17:28:50.629Z,37.26
2019-04-01T17:31:24.852Z,36.84
2019-04-01T17:33:56.283Z,37.31
2019-04-01T17:36:29.345Z,37.33
2019-04-01T17:39:02.287Z,37.31
2019-04-01T17:41:35.856Z,37.60
2019-04-01T17:44:07.318Z,37.84
2019-04-01T17:46:38.761Z,37.90
2019-04-01T17:49:10.208Z,38.57
2019-04-01T17:51:41.638Z,38.53
2019-04-01T17:54:14.340Z,38.49
2019-04-01T17:56:47.165Z,38.99
2019-04-01T17:59:19.098Z,38.81
2019-04-01T18:01:50.541Z,39.15
2019-04-01T18:04:23.286Z,39.15
2019-04-01T18:06:58.254Z,38.87
2019-04-01T18:09:31.183Z,38.94
2019-04-01T18:12:02.856Z,39.07
2019-04-01T18:14:36.328Z,39.39
2019-04-01T18:17:07.856Z,39.17
2019-04-01T18:19:39.330Z,38.97
2019-04-01T18:22:12.370Z,39.08
2019-04-01T18:24:43.819Z,39.32
2019-04-01T18:27:15.456Z,39.10
2019-04-01T18:29:46.972Z,39.91
2019-04-01T18:32:18.412Z,39.67
2019-04-01T18:34:49.881Z,40.12
2019-04-01T18:37:21.491Z,40.01
2019-04-01T18:39:53.076Z,40.21
2019-04-01T18:42:26.672Z,40.90
2019-04-01T18:44:57.473Z,41.04
2019-04-01T18:47:28.941Z,40.50
2019-04-01T18:50:02.149Z,41.45
2019-04-01T18:52:34.443Z,41.23
2019-04-01T18:55:07.991Z,40.66
2019-04-01T18:57:40.581Z,41.84
2019-04-01T19:00:12.102Z,41.24
2019-04-01T19:02:43.553Z,40.99
2019-04-01T19:05:14.932Z,41.80
2019-04-01T19:07:46.457Z,40.77
2019-04-01T19:10:17.897Z,41.34
2019-04-01T19:13:05.084Z,41.72
2019-04-01T19:15:28.455Z,42.56
2019-04-01T19:18:05.662Z,41.72
2019-04-01T19:20:38.095Z,42.18
2019-04-01T19:23:16.266Z,42.80
2019-04-01T19:25:49.908Z,42.24
2019-04-01T19:28:25.061Z,42.34
2019-04-01T19:30:56.526Z,42.55
2019-04-01T19:33:27.934Z,42.74
2019-04-01T19:36:01.396Z,43.78
2019-04-01T19:38:34.354Z,42.98
2019-04-01T19:41:08.007Z,44.25
2019-04-01T19:43:39.720Z,42.83
2019-04-01T19:46:14.452Z,43.77
2019-04-01T19:48:49.232Z,43.11
2019-04-01T19:51:30.527Z,42.94
2019-04-01T19:54:04.033Z,43.54
2019-04-01T19:56:42.660Z,42.97
2019-04-01T19:59:19.485Z,44.22
2019-04-01T20:01:54.478Z,42.83
2019-04-01T20:04:32.910Z,44.37
2019-04-01T20:07:05.415Z,43.03
2019-04-01T20:09:41.815Z,43.15
2019-04-01T20:12:16.743Z,43.52
2019-04-01T20:14:48.360Z,43.00
2019-04-01T20:17:23.701Z,44.19
2019-04-01T20:20:06.818Z,43.04
2019-04-01T20:22:37.506Z,42.76
2019-04-01T20:25:09.485Z,43.43
2019-04-01T20:27:43.221Z,43.46
2019-04-01T20:30:15.816Z,43.97
2019-04-01T20:32:49.457Z,43.16
2019-04-01T20:35:24.121Z,44.37
2019-04-01T20:37:57.342Z,43.28
2019-04-01T20:40:40.311Z,42.90
2019-04-01T20:43:09.831Z,44.08
2019-04-01T20:45:41.845Z,43.04
2019-04-01T20:48:22.740Z,44.65
2019-04-01T20:50:57.557Z,43.78
2019-04-01T20:53:37.319Z,45.17
2019-04-01T20:56:14.665Z,43.70
2019-04-01T20:58:51.752Z,44.92
2019-04-01T21:01:24.033Z,43.77
2019-04-01T21:03:58.789Z,43.86
2019-04-01T21:06:31.918Z,43.27
2019-04-01T21:09:11.490Z,43.19
2019-04-01T21:11:44.704Z,43.98
2019-04-01T21:14:16.139Z,43.72
2019-04-01T21:16:49.748Z,44.09
2019-04-01T21:19:22.440Z,43.32
2019-04-01T21:21:57.067Z,44.30
2019-04-01T21:24:29.686Z,44.02
2019-04-01T21:27:02.946Z,44.46
2019-04-01T21:29:37.523Z,44.16
2019-04-01T21:32:16.151Z,45.56
2019-04-01T21:34:55.414Z,44.11
2019-04-01T21:37:29.301Z,45.43
2019-04-01T21:40:00.836Z,44.49
2019-04-01T21:42:32.212Z,45.88
2019-04-01T21:45:09.828Z,43.66
2019-04-01T21:47:41.680Z,45.92
2019-04-01T21:50:17.170Z,44.17
2019-04-01T21:52:51.255Z,45.00
2019-04-01T21:55:22.681Z,44.55
2019-04-01T21:57:55.359Z,44.33
2019-04-01T22:00:29.674Z,44.46
2019-04-01T22:03:04.540Z,44.68
2019-04-01T22:05:36.641Z,45.12
2019-04-01T22:08:10.406Z,45.16
2019-04-01T22:10:41.826Z,45.24
2019-04-01T22:13:13.290Z,46.11
2019-04-01T22:15:44.725Z,44.86
2019-04-01T22:18:19.342Z,44.63
2019-04-01T22:20:52.252Z,44.68
2019-04-01T22:23:25.861Z,44.85
2019-04-01T22:25:59.012Z,45.02
2019-04-01T22:28:30.912Z,45.59
2019-04-01T22:31:03.591Z,44.80
2019-04-01T22:33:36.251Z,45.17
2019-04-01T22:36:07.713Z,44.70
2019-04-01T22:38:40.400Z,46.38
2019-04-01T22:41:11.850Z,44.79
2019-04-01T22:43:43.375Z,46.64
2019-04-01T22:46:14.786Z,44.65
2019-04-01T22:48:47.776Z,46.76
2019-04-01T22:51:19.198Z,44.50
2019-04-01T22:53:50.645Z,45.86
2019-04-01T22:56:23.630Z,44.71
2019-04-01T22:58:56.303Z,45.71
2019-04-01T23:01:28.976Z,44.84
2019-04-01T23:04:00.446Z,45.89
2019-04-01T23:06:31.889Z,44.81
2019-04-01T23:09:07.006Z,47.14
2019-04-01T23:11:40.018Z,44.62
2019-04-01T23:14:11.466Z,46.61
2019-04-01T23:16:44.141Z,44.59
2019-04-01T23:19:16.828Z,46.25
2019-04-01T23:21:49.508Z,44.66
2019-04-01T23:24:23.108Z,46.12
2019-04-01T23:26:55.736Z,44.75
2019-04-01T23:29:29.505Z,45.73
2019-04-01T23:32:00.834Z,44.04
2019-04-01T23:34:33.289Z,46.84
2019-04-01T23:37:05.886Z,44.20
2019-04-01T23:39:38.563Z,45.62
2019-04-01T23:42:11.240Z,43.89
2019-04-01T23:44:42.775Z,46.16
2019-04-01T23:47:16.587Z,43.98
2019-04-01T23:49:49.287Z,45.96
2019-04-01T23:52:21.961Z,43.61
2019-04-01T23:54:54.642Z,45.96
2019-04-01T23:57:27.326Z,43.46
